sensor_id;sensor_type;location;lat;lon;timestamp;pressure;altitude;pressure_sealevel;temperature;humidity
62926;BME280;55732;52.248;-0.844;2023-04-23T00:02:02;99253.08;;;9.74;77.74
62926;BME280;55732;52.248;-0.844;2023-04-23T00:04:30;99252.92;;;9.74;77.67
62926;BME280;55732;52.248;-0.844;2023-04-23T00:06:59;99248.90;;;9.72;77.80
62926;BME280;55732;52.248;-0.844;2023-04-23T00:09:29;99244.36;;;9.71;77.98
62926;BME280;55732;52.248;-0.844;2023-04-23T00:11:56;99240.67;;;9.70;78.11
62926;BME280;55732;52.248;-0.844;2023-04-23T00:14:22;99238.18;;;9.72;78.16
62926;BME280;55732;52.248;-0.844;2023-04-23T00:16:48;99233.23;;;9.74;78.21
62926;BME280;55732;52.248;-0.844;2023-04-23T00:19:13;99231.11;;;9.74;78.13
62926;BME280;55732;52.248;-0.844;2023-04-23T00:21:39;99229.18;;;9.74;78.15
62926;BME280;55732;52.248;-0.844;2023-04-23T00:24:04;99228.48;;;9.74;78.65
62926;BME280;55732;52.248;-0.844;2023-04-23T00:26:30;99221.84;;;9.73;78.86
62926;BME280;55732;52.248;-0.844;2023-04-23T00:28:55;99220.77;;;9.73;79.01
62926;BME280;55732;52.248;-0.844;2023-04-23T00:31:21;99219.88;;;9.74;79.31
62926;BME280;55732;52.248;-0.844;2023-04-23T00:33:47;99220.03;;;9.75;79.38
62926;BME280;55732;52.248;-0.844;2023-04-23T00:36:12;99218.98;;;9.75;79.46
62926;BME280;55732;52.248;-0.844;2023-04-23T00:38:37;99218.44;;;9.75;79.70
62926;BME280;55732;52.248;-0.844;2023-04-23T00:41:03;99206.65;;;9.77;79.62
62926;BME280;55732;52.248;-0.844;2023-04-23T00:43:29;99202.77;;;9.78;79.74
62926;BME280;55732;52.248;-0.844;2023-04-23T00:45:55;99200.98;;;9.79;79.89
62926;BME280;55732;52.248;-0.844;2023-04-23T00:48:21;99201.50;;;9.79;80.11
62926;BME280;55732;52.248;-0.844;2023-04-23T00:50:46;99198.52;;;9.79;80.32
62926;BME280;55732;52.248;-0.844;2023-04-23T00:53:11;99191.67;;;9.78;80.48
62926;BME280;55732;52.248;-0.844;2023-04-23T00:55:37;99193.16;;;9.82;80.69
62926;BME280;55732;52.248;-0.844;2023-04-23T00:58:02;99194.22;;;9.82;80.90
62926;BME280;55732;52.248;-0.844;2023-04-23T01:00:28;99190.67;;;9.84;81.02
62926;BME280;55732;52.248;-0.844;2023-04-23T01:02:54;99187.15;;;9.84;81.07
62926;BME280;55732;52.248;-0.844;2023-04-23T01:05:21;99184.85;;;9.85;81.04
62926;BME280;55732;52.248;-0.844;2023-04-23T01:07:47;99183.44;;;9.86;81.17
62926;BME280;55732;52.248;-0.844;2023-04-23T01:10:13;99182.02;;;9.86;81.50
62926;BME280;55732;52.248;-0.844;2023-04-23T01:12:38;99176.02;;;9.86;81.71
62926;BME280;55732;52.248;-0.844;2023-04-23T01:15:05;99180.63;;;9.85;81.91
62926;BME280;55732;52.248;-0.844;2023-04-23T01:17:31;99174.48;;;9.85;82.22
62926;BME280;55732;52.248;-0.844;2023-04-23T01:19:58;99169.02;;;9.85;82.15
62926;BME280;55732;52.248;-0.844;2023-04-23T01:22:24;99167.77;;;9.86;82.25
62926;BME280;55732;52.248;-0.844;2023-04-23T01:24:52;99168.65;;;9.86;82.39
62926;BME280;55732;52.248;-0.844;2023-04-23T01:27:18;99167.03;;;9.88;82.75
62926;BME280;55732;52.248;-0.844;2023-04-23T01:29:44;99165.42;;;9.89;82.91
62926;BME280;55732;52.248;-0.844;2023-04-23T01:32:11;99166.42;;;9.92;82.97
62926;BME280;55732;52.248;-0.844;2023-04-23T01:34:37;99165.88;;;9.92;83.04
62926;BME280;55732;52.248;-0.844;2023-04-23T01:37:03;99159.55;;;9.92;83.18
62926;BME280;55732;52.248;-0.844;2023-04-23T01:39:29;99160.41;;;9.92;83.23
62926;BME280;55732;52.248;-0.844;2023-04-23T01:41:55;99158.62;;;9.94;83.29
62926;BME280;55732;52.248;-0.844;2023-04-23T01:44:22;99155.77;;;9.96;83.38
62926;BME280;55732;52.248;-0.844;2023-04-23T01:46:47;99155.39;;;9.98;83.54
62926;BME280;55732;52.248;-0.844;2023-04-23T01:49:13;99148.66;;;10.00;83.57
62926;BME280;55732;52.248;-0.844;2023-04-23T01:51:38;99146.72;;;10.00;83.65
62926;BME280;55732;52.248;-0.844;2023-04-23T01:54:04;99150.58;;;10.01;83.62
62926;BME280;55732;52.248;-0.844;2023-04-23T01:56:29;99152.17;;;10.01;83.69
62926;BME280;55732;52.248;-0.844;2023-04-23T01:58:57;99148.46;;;10.01;83.65
62926;BME280;55732;52.248;-0.844;2023-04-23T02:01:22;99144.23;;;10.02;83.68
62926;BME280;55732;52.248;-0.844;2023-04-23T02:03:48;99144.88;;;10.03;83.68
62926;BME280;55732;52.248;-0.844;2023-04-23T02:06:15;99143.44;;;10.05;83.79
62926;BME280;55732;52.248;-0.844;2023-04-23T02:08:41;99138.87;;;10.04;83.53
62926;BME280;55732;52.248;-0.844;2023-04-23T02:11:06;99137.13;;;10.04;83.79
62926;BME280;55732;52.248;-0.844;2023-04-23T02:13:32;99132.72;;;10.04;83.86
62926;BME280;55732;52.248;-0.844;2023-04-23T02:15:57;99128.31;;;10.05;83.87
62926;BME280;55732;52.248;-0.844;2023-04-23T02:18:23;99126.54;;;10.06;84.00
62926;BME280;55732;52.248;-0.844;2023-04-23T02:20:48;99126.36;;;10.06;84.17
62926;BME280;55732;52.248;-0.844;2023-04-23T02:23:14;99120.58;;;10.05;84.25
62926;BME280;55732;52.248;-0.844;2023-04-23T02:25:39;99116.86;;;10.06;84.37
62926;BME280;55732;52.248;-0.844;2023-04-23T02:28:06;99117.39;;;10.06;84.57
62926;BME280;55732;52.248;-0.844;2023-04-23T02:30:36;99111.41;;;10.06;84.78
62926;BME280;55732;52.248;-0.844;2023-04-23T02:33:01;99109.48;;;10.06;84.88
62926;BME280;55732;52.248;-0.844;2023-04-23T02:35:28;99106.30;;;10.06;84.92
62926;BME280;55732;52.248;-0.844;2023-04-23T02:37:54;99101.21;;;10.06;85.06
62926;BME280;55732;52.248;-0.844;2023-04-23T02:40:20;99099.11;;;10.05;85.07
62926;BME280;55732;52.248;-0.844;2023-04-23T02:42:46;99099.98;;;10.05;85.13
62926;BME280;55732;52.248;-0.844;2023-04-23T02:45:11;99097.88;;;10.06;85.19
62926;BME280;55732;52.248;-0.844;2023-04-23T02:47:37;99096.97;;;10.07;85.28
62926;BME280;55732;52.248;-0.844;2023-04-23T02:50:06;99099.42;;;10.07;85.25
62926;BME280;55732;52.248;-0.844;2023-04-23T02:52:32;99098.89;;;10.08;85.32
62926;BME280;55732;52.248;-0.844;2023-04-23T02:54:59;99096.94;;;10.08;85.39
62926;BME280;55732;52.248;-0.844;2023-04-23T02:57:24;99097.81;;;10.09;85.52
62926;BME280;55732;52.248;-0.844;2023-04-23T02:59:50;99100.10;;;10.08;85.63
62926;BME280;55732;52.248;-0.844;2023-04-23T03:02:15;99099.27;;;10.06;85.71
62926;BME280;55732;52.248;-0.844;2023-04-23T03:04:41;99093.47;;;10.06;85.71
62926;BME280;55732;52.248;-0.844;2023-04-23T03:07:06;99092.42;;;10.05;86.07
62926;BME280;55732;52.248;-0.844;2023-04-23T03:09:32;99091.40;;;10.04;86.24
62926;BME280;55732;52.248;-0.844;2023-04-23T03:11:57;99089.28;;;10.04;86.36
62926;BME280;55732;52.248;-0.844;2023-04-23T03:14:22;99087.84;;;10.06;86.31
62926;BME280;55732;52.248;-0.844;2023-04-23T03:16:48;99088.52;;;10.08;86.30
62926;BME280;55732;52.248;-0.844;2023-04-23T03:19:14;99084.94;;;10.10;86.46
62926;BME280;55732;52.248;-0.844;2023-04-23T03:21:39;99083.86;;;10.11;86.57
62926;BME280;55732;52.248;-0.844;2023-04-23T03:24:05;99086.80;;;10.14;86.60
62926;BME280;55732;52.248;-0.844;2023-04-23T03:26:30;99087.63;;;10.15;86.54
62926;BME280;55732;52.248;-0.844;2023-04-23T03:28:56;99084.08;;;10.18;86.75
62926;BME280;55732;52.248;-0.844;2023-04-23T03:31:21;99085.66;;;10.19;86.70
62926;BME280;55732;52.248;-0.844;2023-04-23T03:33:46;99085.82;;;10.19;86.75
62926;BME280;55732;52.248;-0.844;2023-04-23T03:36:12;99080.20;;;10.18;86.80
62926;BME280;55732;52.248;-0.844;2023-04-23T03:38:38;99078.44;;;10.18;86.78
62926;BME280;55732;52.248;-0.844;2023-04-23T03:41:03;99080.55;;;10.18;86.88
62926;BME280;55732;52.248;-0.844;2023-04-23T03:43:28;99075.98;;;10.17;86.90
62926;BME280;55732;52.248;-0.844;2023-04-23T03:45:54;99073.89;;;10.16;87.09
62926;BME280;55732;52.248;-0.844;2023-04-23T03:48:19;99075.30;;;10.16;86.97
62926;BME280;55732;52.248;-0.844;2023-04-23T03:50:45;99078.31;;;10.15;86.96
62926;BME280;55732;52.248;-0.844;2023-04-23T03:53:11;99076.21;;;10.14;87.04
62926;BME280;55732;52.248;-0.844;2023-04-23T03:55:36;99075.38;;;10.13;86.99
62926;BME280;55732;52.248;-0.844;2023-04-23T03:58:02;99076.27;;;10.13;86.86
62926;BME280;55732;52.248;-0.844;2023-04-23T04:00:27;99079.42;;;10.13;86.92
62926;BME280;55732;52.248;-0.844;2023-04-23T04:02:53;99073.09;;;10.14;86.96
62926;BME280;55732;52.248;-0.844;2023-04-23T04:05:18;99074.09;;;10.15;86.95
62926;BME280;55732;52.248;-0.844;2023-04-23T04:07:43;99073.06;;;10.14;87.13
62926;BME280;55732;52.248;-0.844;2023-04-23T04:10:09;99072.04;;;10.13;87.19
62926;BME280;55732;52.248;-0.844;2023-04-23T04:12:35;99073.99;;;10.13;87.18
62926;BME280;55732;52.248;-0.844;2023-04-23T04:15:01;99070.98;;;10.13;87.03
62926;BME280;55732;52.248;-0.844;2023-04-23T04:17:27;99071.54;;;10.12;87.18
62926;BME280;55732;52.248;-0.844;2023-04-23T04:19:52;99061.00;;;10.11;87.14
62926;BME280;55732;52.248;-0.844;2023-04-23T04:22:18;99063.13;;;10.11;87.11
62926;BME280;55732;52.248;-0.844;2023-04-23T04:24:43;99062.42;;;10.11;87.35
62926;BME280;55732;52.248;-0.844;2023-04-23T04:27:11;99060.15;;;10.10;87.18
62926;BME280;55732;52.248;-0.844;2023-04-23T04:29:36;99055.95;;;10.09;87.30
62926;BME280;55732;52.248;-0.844;2023-04-23T04:32:05;99051.92;;;10.08;87.17
62926;BME280;55732;52.248;-0.844;2023-04-23T04:34:31;99050.35;;;10.08;87.28
62926;BME280;55732;52.248;-0.844;2023-04-23T04:36:56;99053.13;;;10.09;87.26
62926;BME280;55732;52.248;-0.844;2023-04-23T04:39:22;99054.69;;;10.11;87.11
62926;BME280;55732;52.248;-0.844;2023-04-23T04:41:47;99058.54;;;10.11;87.12
62926;BME280;55732;52.248;-0.844;2023-04-23T04:44:12;99060.31;;;10.11;87.02
62926;BME280;55732;52.248;-0.844;2023-04-23T04:46:41;99059.77;;;10.11;87.20
62926;BME280;55732;52.248;-0.844;2023-04-23T04:49:08;99056.24;;;10.12;87.12
62926;BME280;55732;52.248;-0.844;2023-04-23T04:51:35;99058.69;;;10.12;86.98
62926;BME280;55732;52.248;-0.844;2023-04-23T04:54:00;99057.44;;;10.13;86.93
62926;BME280;55732;52.248;-0.844;2023-04-23T04:56:26;99058.84;;;10.14;86.96
62926;BME280;55732;52.248;-0.844;2023-04-23T04:58:51;99062.70;;;10.14;86.99
62926;BME280;55732;52.248;-0.844;2023-04-23T05:01:17;99057.41;;;10.14;87.01
62926;BME280;55732;52.248;-0.844;2023-04-23T05:03:43;99057.91;;;10.15;87.02
62926;BME280;55732;52.248;-0.844;2023-04-23T05:06:08;99057.38;;;10.15;86.87
62926;BME280;55732;52.248;-0.844;2023-04-23T05:08:34;99058.07;;;10.15;86.89
62926;BME280;55732;52.248;-0.844;2023-04-23T05:11:00;99057.52;;;10.17;86.78
62926;BME280;55732;52.248;-0.844;2023-04-23T05:13:26;99058.58;;;10.17;86.95
62926;BME280;55732;52.248;-0.844;2023-04-23T05:15:51;99054.17;;;10.18;86.78
62926;BME280;55732;52.248;-0.844;2023-04-23T05:18:17;99053.11;;;10.19;86.94
62926;BME280;55732;52.248;-0.844;2023-04-23T05:20:42;99056.77;;;10.20;86.89
62926;BME280;55732;52.248;-0.844;2023-04-23T05:23:08;99060.44;;;10.22;86.92
62926;BME280;55732;52.248;-0.844;2023-04-23T05:25:33;99058.30;;;10.23;86.96
62926;BME280;55732;52.248;-0.844;2023-04-23T05:27:59;99060.91;;;10.24;86.76
62926;BME280;55732;52.248;-0.844;2023-04-23T05:30:26;99062.80;;;10.26;86.88
62926;BME280;55732;52.248;-0.844;2023-04-23T05:32:51;99065.54;;;10.28;86.99
62926;BME280;55732;52.248;-0.844;2023-04-23T05:35:17;99063.23;;;10.29;87.01
62926;BME280;55732;52.248;-0.844;2023-04-23T05:37:42;99068.31;;;10.30;87.20
62926;BME280;55732;52.248;-0.844;2023-04-23T05:40:08;99074.77;;;10.32;87.32
62926;BME280;55732;52.248;-0.844;2023-04-23T05:42:35;99078.80;;;10.33;87.23
62926;BME280;55732;52.248;-0.844;2023-04-23T05:45:01;99077.38;;;10.34;87.30
62926;BME280;55732;52.248;-0.844;2023-04-23T05:47:28;99077.00;;;10.35;87.14
62926;BME280;55732;52.248;-0.844;2023-04-23T05:49:53;99080.34;;;10.35;87.12
62926;BME280;55732;52.248;-0.844;2023-04-23T05:52:22;99080.67;;;10.36;87.20
62926;BME280;55732;52.248;-0.844;2023-04-23T05:54:47;99080.64;;;10.38;87.03
62926;BME280;55732;52.248;-0.844;2023-04-23T05:57:13;99081.85;;;10.38;86.91
62926;BME280;55732;52.248;-0.844;2023-04-23T05:59:38;99085.38;;;10.38;86.70
62926;BME280;55732;52.248;-0.844;2023-04-23T06:02:04;99090.31;;;10.38;86.64
62926;BME280;55732;52.248;-0.844;2023-04-23T06:04:29;99092.29;;;10.36;86.66
62926;BME280;55732;52.248;-0.844;2023-04-23T06:06:55;99095.33;;;10.34;86.53
62926;BME280;55732;52.248;-0.844;2023-04-23T06:09:20;99092.41;;;10.30;86.30
62926;BME280;55732;52.248;-0.844;2023-04-23T06:11:46;99091.98;;;10.26;86.17
62926;BME280;55732;52.248;-0.844;2023-04-23T06:14:11;99094.72;;;10.23;86.38
62926;BME280;55732;52.248;-0.844;2023-04-23T06:16:36;99097.05;;;10.21;86.55
62926;BME280;55732;52.248;-0.844;2023-04-23T06:19:02;99098.13;;;10.19;86.32
62926;BME280;55732;52.248;-0.844;2023-04-23T06:21:28;99099.24;;;10.15;86.25
62926;BME280;55732;52.248;-0.844;2023-04-23T06:23:53;99099.34;;;10.11;86.36
62926;BME280;55732;52.248;-0.844;2023-04-23T06:26:19;99096.73;;;10.10;86.42
62926;BME280;55732;52.248;-0.844;2023-04-23T06:28:45;99094.11;;;10.09;86.50
62926;BME280;55732;52.248;-0.844;2023-04-23T06:31:11;99094.10;;;10.10;86.54
62926;BME280;55732;52.248;-0.844;2023-04-23T06:33:37;99097.05;;;10.11;86.54
62926;BME280;55732;52.248;-0.844;2023-04-23T06:36:03;99098.80;;;10.12;86.55
62926;BME280;55732;52.248;-0.844;2023-04-23T06:38:29;99101.45;;;10.11;86.50
62926;BME280;55732;52.248;-0.844;2023-04-23T06:40:54;99098.66;;;10.11;86.32
62926;BME280;55732;52.248;-0.844;2023-04-23T06:43:20;99097.97;;;10.09;86.25
62926;BME280;55732;52.248;-0.844;2023-04-23T06:45:45;99093.92;;;10.09;86.43
62926;BME280;55732;52.248;-0.844;2023-04-23T06:48:11;99097.23;;;10.11;86.19
62926;BME280;55732;52.248;-0.844;2023-04-23T06:50:36;99097.77;;;10.19;86.03
62926;BME280;55732;52.248;-0.844;2023-04-23T06:53:01;99104.45;;;10.42;85.99
62926;BME280;55732;52.248;-0.844;2023-04-23T06:55:27;99103.19;;;10.57;85.76
62926;BME280;55732;52.248;-0.844;2023-04-23T06:57:54;99101.86;;;10.67;85.49
62926;BME280;55732;52.248;-0.844;2023-04-23T07:00:21;99101.05;;;10.72;85.00
62926;BME280;55732;52.248;-0.844;2023-04-23T07:02:47;99096.73;;;10.82;84.65
62926;BME280;55732;52.248;-0.844;2023-04-23T07:05:12;99095.86;;;11.08;84.28
62926;BME280;55732;52.248;-0.844;2023-04-23T07:07:38;99096.09;;;11.38;83.69
62926;BME280;55732;52.248;-0.844;2023-04-23T07:10:06;99095.72;;;12.11;82.66
62926;BME280;55732;52.248;-0.844;2023-04-23T07:12:31;99098.17;;;12.44;81.57
62926;BME280;55732;52.248;-0.844;2023-04-23T07:14:57;99098.30;;;12.51;80.82
62926;BME280;55732;52.248;-0.844;2023-04-23T07:17:22;99102.77;;;12.60;80.24
62926;BME280;55732;52.248;-0.844;2023-04-23T07:19:47;99097.75;;;12.78;79.79
62926;BME280;55732;52.248;-0.844;2023-04-23T07:22:13;99098.59;;;12.95;78.40
62926;BME280;55732;52.248;-0.844;2023-04-23T07:24:39;99101.60;;;12.94;78.20
62926;BME280;55732;52.248;-0.844;2023-04-23T07:27:05;99105.66;;;12.94;77.83
62926;BME280;55732;52.248;-0.844;2023-04-23T07:29:31;99104.96;;;12.94;77.62
62926;BME280;55732;52.248;-0.844;2023-04-23T07:31:57;99105.67;;;12.89;77.41
62926;BME280;55732;52.248;-0.844;2023-04-23T07:34:22;99106.64;;;12.76;77.16
62926;BME280;55732;52.248;-0.844;2023-04-23T07:36:47;99109.98;;;12.66;77.41
62926;BME280;55732;52.248;-0.844;2023-04-23T07:39:13;99105.40;;;12.65;77.78
62926;BME280;55732;52.248;-0.844;2023-04-23T07:41:38;99104.13;;;12.82;77.56
62926;BME280;55732;52.248;-0.844;2023-04-23T07:44:04;99111.61;;;13.01;76.55
62926;BME280;55732;52.248;-0.844;2023-04-23T07:46:30;99112.06;;;13.03;76.05
62926;BME280;55732;52.248;-0.844;2023-04-23T07:48:55;99117.05;;;13.08;76.04
62926;BME280;55732;52.248;-0.844;2023-04-23T07:51:21;99125.27;;;13.16;75.76
62926;BME280;55732;52.248;-0.844;2023-04-23T07:53:51;99123.38;;;13.34;75.36
62926;BME280;55732;52.248;-0.844;2023-04-23T07:56:19;99124.44;;;13.53;74.15
62926;BME280;55732;52.248;-0.844;2023-04-23T07:58:45;99119.89;;;13.47;73.73
62926;BME280;55732;52.248;-0.844;2023-04-23T08:01:11;99123.67;;;13.69;73.13
62926;BME280;55732;52.248;-0.844;2023-04-23T08:03:36;99126.98;;;14.66;71.77
62926;BME280;55732;52.248;-0.844;2023-04-23T08:06:02;99131.91;;;14.80;70.77
62926;BME280;55732;52.248;-0.844;2023-04-23T08:08:29;99129.91;;;14.55;70.27
62926;BME280;55732;52.248;-0.844;2023-04-23T08:10:54;99130.17;;;15.15;69.10
62926;BME280;55732;52.248;-0.844;2023-04-23T08:13:20;99123.62;;;17.61;64.99
62926;BME280;55732;52.248;-0.844;2023-04-23T08:15:45;99113.92;;;20.59;59.51
62926;BME280;55732;52.248;-0.844;2023-04-23T08:18:11;99115.12;;;22.32;55.91
62926;BME280;55732;52.248;-0.844;2023-04-23T08:20:36;99116.09;;;22.89;53.59
62926;BME280;55732;52.248;-0.844;2023-04-23T08:23:03;99117.66;;;23.32;51.41
62926;BME280;55732;52.248;-0.844;2023-04-23T08:25:29;99127.39;;;22.97;51.01
62926;BME280;55732;52.248;-0.844;2023-04-23T08:27:54;99132.00;;;21.79;51.44
62926;BME280;55732;52.248;-0.844;2023-04-23T08:30:20;99134.20;;;20.68;52.40
62926;BME280;55732;52.248;-0.844;2023-04-23T08:32:48;99135.02;;;20.59;52.31
62926;BME280;55732;52.248;-0.844;2023-04-23T08:35:14;99137.84;;;20.31;52.69
62926;BME280;55732;52.248;-0.844;2023-04-23T08:37:40;99137.58;;;22.55;49.80
62926;BME280;55732;52.248;-0.844;2023-04-23T08:40:06;99135.63;;;24.67;46.79
62926;BME280;55732;52.248;-0.844;2023-04-23T08:42:37;99136.20;;;25.19;45.74
62926;BME280;55732;52.248;-0.844;2023-04-23T08:45:06;99135.42;;;25.51;44.97
62926;BME280;55732;52.248;-0.844;2023-04-23T08:47:31;99132.31;;;25.73;43.76
62926;BME280;55732;52.248;-0.844;2023-04-23T08:49:58;99134.55;;;26.87;41.60
62926;BME280;55732;52.248;-0.844;2023-04-23T08:52:25;99129.30;;;27.61;40.06
62926;BME280;55732;52.248;-0.844;2023-04-23T08:55:00;99128.63;;;27.08;39.72
62926;BME280;55732;52.248;-0.844;2023-04-23T08:57:26;99132.20;;;26.89;39.78
62926;BME280;55732;52.248;-0.844;2023-04-23T08:59:52;99133.18;;;25.96;40.36
62926;BME280;55732;52.248;-0.844;2023-04-23T09:02:17;99135.90;;;25.52;40.05
62926;BME280;55732;52.248;-0.844;2023-04-23T09:04:46;99133.56;;;27.37;38.08
62926;BME280;55732;52.248;-0.844;2023-04-23T09:07:12;99133.91;;;28.02;37.32
62926;BME280;55732;52.248;-0.844;2023-04-23T09:09:39;99132.08;;;28.09;36.85
62926;BME280;55732;52.248;-0.844;2023-04-23T09:12:06;99136.51;;;26.55;37.87
62926;BME280;55732;52.248;-0.844;2023-04-23T09:14:33;99137.18;;;24.77;39.53
62926;BME280;55732;52.248;-0.844;2023-04-23T09:16:58;99143.80;;;23.40;41.17
62926;BME280;55732;52.248;-0.844;2023-04-23T09:19:25;99146.08;;;22.21;42.51
62926;BME280;55732;52.248;-0.844;2023-04-23T09:21:57;99144.67;;;21.02;44.09
62926;BME280;55732;52.248;-0.844;2023-04-23T09:24:25;99149.23;;;20.15;45.12
62926;BME280;55732;52.248;-0.844;2023-04-23T09:26:51;99149.55;;;19.95;45.65
62926;BME280;55732;52.248;-0.844;2023-04-23T09:29:21;99144.14;;;22.14;43.24
62926;BME280;55732;52.248;-0.844;2023-04-23T09:31:53;99138.20;;;23.50;41.26
62926;BME280;55732;52.248;-0.844;2023-04-23T09:34:20;99132.08;;;23.96;40.63
62926;BME280;55732;52.248;-0.844;2023-04-23T09:36:49;99131.65;;;24.40;39.88
62926;BME280;55732;52.248;-0.844;2023-04-23T09:39:21;99135.48;;;24.23;39.36
62926;BME280;55732;52.248;-0.844;2023-04-23T09:41:46;99141.55;;;23.35;39.89
62926;BME280;55732;52.248;-0.844;2023-04-23T09:44:21;99143.52;;;22.97;39.90
62926;BME280;55732;52.248;-0.844;2023-04-23T09:46:47;99137.05;;;23.49;39.14
62926;BME280;55732;52.248;-0.844;2023-04-23T09:49:14;99129.77;;;24.47;37.94
62926;BME280;55732;52.248;-0.844;2023-04-23T09:51:42;99128.12;;;26.20;36.38
62926;BME280;55732;52.248;-0.844;2023-04-23T09:56:41;99119.58;;;27.81;34.16
62926;BME280;55732;52.248;-0.844;2023-04-23T09:59:23;99120.08;;;28.74;33.18
62926;BME280;55732;52.248;-0.844;2023-04-23T10:01:49;99121.48;;;29.09;32.34
62926;BME280;55732;52.248;-0.844;2023-04-23T10:04:18;99122.77;;;28.49;32.82
62926;BME280;55732;52.248;-0.844;2023-04-23T10:06:52;99124.40;;;27.26;33.72
62926;BME280;55732;52.248;-0.844;2023-04-23T10:09:17;99124.96;;;25.72;35.62
62926;BME280;55732;52.248;-0.844;2023-04-23T10:11:48;99123.82;;;25.36;36.21
62926;BME280;55732;52.248;-0.844;2023-04-23T10:14:15;99123.09;;;24.99;36.40
62926;BME280;55732;52.248;-0.844;2023-04-23T10:16:43;99120.65;;;24.31;37.26
62926;BME280;55732;52.248;-0.844;2023-04-23T10:19:13;99118.43;;;25.24;36.40
62926;BME280;55732;52.248;-0.844;2023-04-23T10:21:40;99118.40;;;26.74;34.26
62926;BME280;55732;52.248;-0.844;2023-04-23T10:24:08;99113.80;;;27.83;33.23
62926;BME280;55732;52.248;-0.844;2023-04-23T10:26:41;99109.98;;;28.74;32.27
62926;BME280;55732;52.248;-0.844;2023-04-23T10:29:08;99109.38;;;29.26;30.82
62926;BME280;55732;52.248;-0.844;2023-04-23T10:31:38;99113.16;;;28.85;30.95
62926;BME280;55732;52.248;-0.844;2023-04-23T10:34:05;99115.45;;;27.85;31.50
62926;BME280;55732;52.248;-0.844;2023-04-23T10:36:32;99117.13;;;27.09;32.17
62926;BME280;55732;52.248;-0.844;2023-04-23T10:38:58;99120.45;;;25.97;33.48
62926;BME280;55732;52.248;-0.844;2023-04-23T10:41:34;99118.30;;;24.96;34.45
62926;BME280;55732;52.248;-0.844;2023-04-23T10:44:02;99117.92;;;24.00;34.81
62926;BME280;55732;52.248;-0.844;2023-04-23T10:46:31;99121.23;;;23.16;36.18
62926;BME280;55732;52.248;-0.844;2023-04-23T10:49:12;99118.05;;;22.36;37.01
62926;BME280;55732;52.248;-0.844;2023-04-23T10:51:44;99113.83;;;21.65;37.99
62926;BME280;55732;52.248;-0.844;2023-04-23T10:54:13;99108.13;;;21.52;38.69
62926;BME280;55732;52.248;-0.844;2023-04-23T10:56:39;99103.23;;;21.53;38.74
62926;BME280;55732;52.248;-0.844;2023-04-23T10:59:27;99101.12;;;21.52;39.28
62926;BME280;55732;52.248;-0.844;2023-04-23T11:01:55;99098.84;;;21.54;39.64
62926;BME280;55732;52.248;-0.844;2023-04-23T11:04:26;99098.52;;;21.53;40.12
62926;BME280;55732;52.248;-0.844;2023-04-23T11:06:55;99097.63;;;21.45;40.25
62926;BME280;55732;52.248;-0.844;2023-04-23T11:11:59;99104.27;;;20.66;40.28
62926;BME280;55732;52.248;-0.844;2023-04-23T11:17:11;99102.67;;;20.39;41.03
62926;BME280;55732;52.248;-0.844;2023-04-23T11:19:38;99100.80;;;20.34;41.26
62926;BME280;55732;52.248;-0.844;2023-04-23T11:22:12;99101.27;;;20.27;41.03
62926;BME280;55732;52.248;-0.844;2023-04-23T11:24:40;99098.08;;;20.10;40.46
62926;BME280;55732;52.248;-0.844;2023-04-23T11:27:17;99096.08;;;20.19;40.52
62926;BME280;55732;52.248;-0.844;2023-04-23T11:29:45;99100.77;;;20.35;40.69
62926;BME280;55732;52.248;-0.844;2023-04-23T11:32:12;99102.02;;;20.49;41.02
62926;BME280;55732;52.248;-0.844;2023-04-23T11:34:40;99100.52;;;20.50;41.36
62926;BME280;55732;52.248;-0.844;2023-04-23T11:37:12;99104.46;;;20.22;41.56
62926;BME280;55732;52.248;-0.844;2023-04-23T11:39:39;99104.80;;;20.08;42.12
62926;BME280;55732;52.248;-0.844;2023-04-23T11:42:09;99103.66;;;20.21;42.07
62926;BME280;55732;52.248;-0.844;2023-04-23T11:44:37;99108.21;;;20.39;41.19
62926;BME280;55732;52.248;-0.844;2023-04-23T11:47:03;99108.20;;;20.36;41.36
62926;BME280;55732;52.248;-0.844;2023-04-23T11:49:28;99111.98;;;19.94;41.69
62926;BME280;55732;52.248;-0.844;2023-04-23T11:51:54;99112.01;;;19.71;42.34
62926;BME280;55732;52.248;-0.844;2023-04-23T11:54:24;99112.23;;;19.38;42.96
62926;BME280;55732;52.248;-0.844;2023-04-23T11:56:52;99112.55;;;19.03;43.12
62926;BME280;55732;52.248;-0.844;2023-04-23T11:59:18;99115.29;;;18.74;43.44
62926;BME280;55732;52.248;-0.844;2023-04-23T12:01:50;99116.72;;;18.46;44.00
62926;BME280;55732;52.248;-0.844;2023-04-23T12:04:22;99113.23;;;18.58;44.08
62926;BME280;55732;52.248;-0.844;2023-04-23T12:06:49;99119.63;;;18.64;43.84
62926;BME280;55732;52.248;-0.844;2023-04-23T12:09:16;99120.39;;;18.63;43.86
62926;BME280;55732;52.248;-0.844;2023-04-23T12:11:43;99116.71;;;18.65;44.13
62926;BME280;55732;52.248;-0.844;2023-04-23T12:14:11;99113.38;;;18.92;44.49
62926;BME280;55732;52.248;-0.844;2023-04-23T12:16:41;99107.07;;;19.32;44.71
62926;BME280;55732;52.248;-0.844;2023-04-23T12:19:15;99110.08;;;19.65;43.31
62926;BME280;55732;52.248;-0.844;2023-04-23T12:22:01;99109.62;;;19.63;42.89
62926;BME280;55732;52.248;-0.844;2023-04-23T12:24:47;99106.55;;;19.61;42.45
62926;BME280;55732;52.248;-0.844;2023-04-23T12:27:18;99104.42;;;19.40;42.95
62926;BME280;55732;52.248;-0.844;2023-04-23T12:29:45;99104.06;;;19.16;42.94
62926;BME280;55732;52.248;-0.844;2023-04-23T12:32:13;99109.83;;;18.95;43.27
62926;BME280;55732;52.248;-0.844;2023-04-23T12:34:53;99112.81;;;18.68;43.63
62926;BME280;55732;52.248;-0.844;2023-04-23T12:37:23;99112.91;;;18.38;43.87
62926;BME280;55732;52.248;-0.844;2023-04-23T12:39:50;99115.63;;;18.09;43.99
62926;BME280;55732;52.248;-0.844;2023-04-23T12:42:17;99113.58;;;17.88;44.10
62926;BME280;55732;52.248;-0.844;2023-04-23T12:44:42;99112.55;;;17.70;45.00
62926;BME280;55732;52.248;-0.844;2023-04-23T12:47:09;99113.30;;;17.53;46.18
62926;BME280;55732;52.248;-0.844;2023-04-23T12:49:44;99113.98;;;17.36;47.04
62926;BME280;55732;52.248;-0.844;2023-04-23T12:52:10;99106.98;;;17.21;47.43
62926;BME280;55732;52.248;-0.844;2023-04-23T12:54:37;99109.45;;;17.01;48.05
62926;BME280;55732;52.248;-0.844;2023-04-23T12:57:05;99107.98;;;16.87;48.42